Time;durP1;ratioP1;P1;durP2;ratioP2;P2;SDS_P1;SDS_P2;PMS_P1;PMS_P2;Temp;Humidity;BMP_temperature;BMP_pressure;BME280_temperature;BME280_humidity;BME280_pressure;Samples;Min_cycle;Max_cycle;Signal;HPM_P1;HPM_P2
2021/03/06 00:00:15;;;;;;;14.73;10.55;;;10.00;99.90;;;;;;5016115;28;20029;-72
2021/03/06 00:02:41;;;;;;;14.48;9.63;;;10.00;99.90;;;;;;5015320;28;20060;-72
2021/03/06 00:05:08;;;;;;;13.30;9.88;;;10.00;99.90;;;;;;5014120;28;20022;-73
2021/03/06 00:07:34;;;;;;;13.60;9.50;;;9.90;99.90;;;;;;5016854;28;20030;-73
2021/03/06 00:09:59;;;;;;;17.17;10.85;;;9.90;99.90;;;;;;5024497;28;20029;-73
2021/03/06 00:12:25;;;;;;;15.23;10.05;;;9.90;99.90;;;;;;5034913;28;20113;-73
2021/03/06 00:14:51;;;;;;;13.98;9.65;;;9.90;99.90;;;;;;5028956;28;20097;-73
2021/03/06 00:17:17;;;;;;;15.07;9.98;;;9.90;99.90;;;;;;5000765;28;20068;-73
2021/03/06 00:19:42;;;;;;;12.05;9.02;;;10.00;99.90;;;;;;5015035;28;20060;-73
2021/03/06 00:22:08;;;;;;;12.63;9.05;;;10.00;99.90;;;;;;5014781;28;20052;-73
2021/03/06 00:24:34;;;;;;;13.68;10.32;;;10.00;99.90;;;;;;5014638;28;20651;-73
2021/03/06 00:27:00;;;;;;;14.10;9.82;;;10.00;99.90;;;;;;5014930;28;20041;-73
2021/03/06 00:29:26;;;;;;;14.10;10.35;;;10.00;99.90;;;;;;5015706;28;20034;-73
2021/03/06 00:31:52;;;;;;;14.82;10.07;;;10.00;99.90;;;;;;5017207;28;20053;-73
2021/03/06 00:34:17;;;;;;;14.23;9.82;;;10.10;99.90;;;;;;5014343;28;20040;-73
2021/03/06 00:36:43;;;;;;;13.70;9.63;;;10.20;99.90;;;;;;5014277;28;20490;-73
2021/03/06 00:39:10;;;;;;;16.15;9.65;;;10.20;99.90;;;;;;5013878;28;20046;-73
2021/03/06 00:41:36;;;;;;;13.13;9.48;;;10.20;99.90;;;;;;5014052;28;20121;-73
2021/03/06 00:44:02;;;;;;;12.38;9.77;;;10.20;99.90;;;;;;5014360;28;20025;-73
2021/03/06 00:46:29;;;;;;;13.68;10.38;;;10.20;99.90;;;;;;5014570;28;20040;-73
2021/03/06 00:48:55;;;;;;;15.40;10.55;;;10.20;99.90;;;;;;5014172;28;20025;-73
2021/03/06 00:51:22;;;;;;;17.63;12.40;;;10.10;99.90;;;;;;5014298;28;20042;-73
2021/03/06 00:53:48;;;;;;;12.60;10.85;;;10.00;99.90;;;;;;5014087;28;20040;-73
2021/03/06 00:56:13;;;;;;;12.82;11.18;;;10.00;99.90;;;;;;5023701;28;20108;-73
2021/03/06 00:58:39;;;;;;;12.55;10.55;;;10.00;99.90;;;;;;5033007;28;20036;-73
2021/03/06 01:01:06;;;;;;;14.65;9.95;;;10.00;99.90;;;;;;5013512;28;20037;-73
2021/03/06 01:03:32;;;;;;;16.20;9.70;;;10.00;99.90;;;;;;5026464;28;20029;-73
2021/03/06 01:05:58;;;;;;;12.50;9.10;;;9.90;99.90;;;;;;5028486;28;20378;-73
2021/03/06 01:08:24;;;;;;;13.55;10.20;;;9.80;99.90;;;;;;5013578;28;20030;-73
2021/03/06 01:10:51;;;;;;;13.77;9.85;;;9.90;99.90;;;;;;5014178;28;20437;-73
2021/03/06 01:13:18;;;;;;;14.70;9.38;;;10.00;99.90;;;;;;5014055;28;20064;-73
2021/03/06 01:15:44;;;;;;;13.68;9.48;;;10.00;99.90;;;;;;5013668;28;20026;-72
2021/03/06 01:18:10;;;;;;;14.40;8.77;;;10.00;99.90;;;;;;5013815;28;20030;-73
2021/03/06 01:20:36;;;;;;;13.80;9.00;;;10.00;99.90;;;;;;5014059;28;20034;-73
2021/03/06 01:23:03;;;;;;;12.20;9.73;;;10.10;99.90;;;;;;5024319;28;20044;-73
2021/03/06 01:25:29;;;;;;;12.40;9.05;;;10.20;99.90;;;;;;5033506;28;20033;-72
2021/03/06 01:27:56;;;;;;;13.50;10.27;;;10.10;99.90;;;;;;5033390;28;20075;-73
2021/03/06 01:30:22;;;;;;;16.52;10.80;;;10.10;99.90;;;;;;5033028;28;20489;-73
2021/03/06 01:32:48;;;;;;;19.08;9.98;;;10.10;99.90;;;;;;5032208;28;20507;-72
2021/03/06 01:35:14;;;;;;;20.35;12.52;;;10.00;99.90;;;;;;5033057;28;20060;-73
2021/03/06 01:37:41;;;;;;;23.20;11.52;;;10.00;99.90;;;;;;5023099;28;20068;-73
2021/03/06 01:40:15;;;;;;;18.67;12.10;;;9.90;99.90;;;;;;5013401;28;20037;-73
2021/03/06 01:42:41;;;;;;;15.27;10.88;;;9.90;99.90;;;;;;5013430;28;20026;-72
2021/03/06 01:45:08;;;;;;;15.60;11.80;;;9.90;99.90;;;;;;5015155;28;20024;-73
2021/03/06 01:47:35;;;;;;;14.98;11.02;;;9.90;99.90;;;;;;5032980;28;20110;-72
2021/03/06 01:50:01;;;;;;;15.60;11.02;;;9.90;99.90;;;;;;5013533;28;20026;-73
2021/03/06 01:52:27;;;;;;;19.67;11.93;;;9.90;99.90;;;;;;5013340;28;20398;-73
2021/03/06 01:54:55;;;;;;;16.73;11.50;;;9.90;99.90;;;;;;5013160;28;20026;-73
2021/03/06 01:57:21;;;;;;;15.95;12.00;;;9.80;99.90;;;;;;5012942;28;20026;-73
2021/03/06 01:59:47;;;;;;;15.02;10.35;;;9.80;99.90;;;;;;5013144;28;20080;-73
2021/03/06 02:02:12;;;;;;;17.80;10.90;;;9.80;99.90;;;;;;5011187;28;20034;-73
2021/03/06 02:04:39;;;;;;;14.40;10.80;;;9.90;99.90;;;;;;5027440;28;20078;-73
2021/03/06 02:07:05;;;;;;;13.10;11.07;;;9.90;99.90;;;;;;5023333;28;20046;-73
2021/03/06 02:09:31;;;;;;;16.92;10.20;;;9.80;99.90;;;;;;5014835;28;20537;-73
2021/03/06 02:12:05;;;;;;;16.67;10.45;;;9.80;99.90;;;;;;5011037;28;20759;-73
2021/03/06 02:14:43;;;;;;;16.42;10.30;;;9.80;99.90;;;;;;5012255;28;20021;-73
2021/03/06 02:17:20;;;;;;;17.83;11.20;;;9.80;99.90;;;;;;5029447;28;20040;-73
2021/03/06 02:20:18;;;;;;;15.25;10.73;;;9.80;99.90;;;;;;5032161;28;20075;-73
2021/03/06 02:23:09;;;;;;;14.85;10.15;;;9.70;99.90;;;;;;5006802;28;20022;-73
2021/03/06 02:25:59;;;;;;;13.73;10.30;;;9.70;99.90;;;;;;5012769;28;20037;-73
2021/03/06 02:28:43;;;;;;;18.27;10.02;;;9.80;99.90;;;;;;5012879;28;20022;-73
2021/03/06 02:31:13;;;;;;;17.33;10.40;;;9.70;99.90;;;;;;5022133;28;20026;-73
2021/03/06 02:33:43;;;;;;;15.68;9.88;;;9.70;99.90;;;;;;5015082;28;20083;-72
2021/03/06 02:36:15;;;;;;;12.77;9.80;;;9.70;99.90;;;;;;5012681;28;20503;-72
2021/03/06 02:38:42;;;;;;;10.90;9.32;;;9.70;99.90;;;;;;5012411;28;20046;-72
2021/03/06 02:41:11;;;;;;;21.17;11.85;;;9.70;99.90;;;;;;5012686;28;20026;-73
2021/03/06 02:43:36;;;;;;;21.05;11.70;;;9.60;99.90;;;;;;5012649;28;20105;-72
2021/03/06 02:46:07;;;;;;;16.80;10.45;;;9.60;99.90;;;;;;5012189;28;20113;-73
2021/03/06 02:48:35;;;;;;;13.93;10.82;;;9.50;99.90;;;;;;5012098;28;20026;-73
2021/03/06 02:51:01;;;;;;;14.80;9.63;;;9.50;99.90;;;;;;5012460;28;20131;-73
2021/03/06 02:53:27;;;;;;;14.90;10.40;;;9.50;99.90;;;;;;5012597;28;20022;-73
2021/03/06 02:55:53;;;;;;;13.60;11.20;;;9.50;99.90;;;;;;5012411;28;20082;-73
2021/03/06 02:59:04;;;;;;;12.82;9.90;;;9.50;99.90;;;;;;5012359;28;20397;-73
2021/03/06 03:01:57;;;;;;;15.95;10.68;;;9.50;99.90;;;;;;4990362;28;20049;-72
2021/03/06 03:04:55;;;;;;;15.90;9.90;;;9.40;99.90;;;;;;4990096;28;20053;-73
2021/03/06 03:07:27;;;;;;;14.88;10.30;;;9.40;99.90;;;;;;5001831;28;20061;-73
2021/03/06 03:09:59;;;;;;;16.80;11.15;;;9.30;99.90;;;;;;4989504;28;20066;-73
2021/03/06 03:12:29;;;;;;;12.90;10.98;;;9.40;99.90;;;;;;4990563;28;20384;-73
2021/03/06 03:15:20;;;;;;;16.38;11.00;;;9.30;99.90;;;;;;4990323;28;20105;-73
2021/03/06 03:17:49;;;;;;;13.68;10.70;;;9.30;99.90;;;;;;4973399;28;20035;-72
2021/03/06 03:20:35;;;;;;;15.05;10.93;;;9.30;99.90;;;;;;5003899;28;20058;-72
2021/03/06 03:23:26;;;;;;;18.67;12.43;;;9.30;99.90;;;;;;5011286;28;20034;-72
2021/03/06 03:25:53;;;;;;;17.38;11.88;;;9.20;99.90;;;;;;4989070;28;20500;-72
2021/03/06 03:28:21;;;;;;;15.18;12.52;;;9.20;99.90;;;;;;4993474;28;20491;-72
2021/03/06 03:30:47;;;;;;;19.27;12.27;;;9.20;99.90;;;;;;4993035;28;20081;-72
2021/03/06 03:33:15;;;;;;;19.35;12.23;;;9.10;99.90;;;;;;4993549;28;20467;-72
2021/03/06 03:35:44;;;;;;;16.92;12.80;;;9.10;99.90;;;;;;4993936;28;20030;-72
2021/03/06 03:38:10;;;;;;;15.47;11.97;;;9.10;99.90;;;;;;5018310;28;20057;-72
2021/03/06 03:40:37;;;;;;;18.90;12.93;;;9.10;99.90;;;;;;5020292;28;20273;-73
2021/03/06 03:43:04;;;;;;;16.00;11.63;;;9.10;99.90;;;;;;5015524;28;20018;-73
2021/03/06 03:45:31;;;;;;;19.13;13.50;;;9.20;99.90;;;;;;5015673;28;20026;-73
2021/03/06 03:47:59;;;;;;;17.55;12.38;;;9.20;99.90;;;;;;5015155;28;20371;-73
2021/03/06 03:50:25;;;;;;;17.15;12.25;;;9.20;99.90;;;;;;5029790;28;20051;-72
2021/03/06 03:52:51;;;;;;;16.02;12.65;;;9.20;99.90;;;;;;5035129;28;20072;-73
2021/03/06 03:55:18;;;;;;;17.02;13.43;;;9.20;99.90;;;;;;5035205;28;20025;-73
2021/03/06 03:57:46;;;;;;;15.95;13.13;;;9.20;99.90;;;;;;5035060;28;20029;-73
2021/03/06 04:00:14;;;;;;;15.75;12.50;;;9.20;99.90;;;;;;5018359;28;20048;-72
2021/03/06 04:02:40;;;;;;;17.08;13.15;;;9.10;99.90;;;;;;5030305;28;20026;-73
2021/03/06 04:05:08;;;;;;;16.48;12.98;;;9.10;99.90;;;;;;5030057;28;20515;-73
2021/03/06 04:07:51;;;;;;;15.43;13.02;;;9.10;99.90;;;;;;5021542;28;20032;-73
2021/03/06 04:10:21;;;;;;;18.50;12.27;;;9.10;99.90;;;;;;5035065;28;20128;-73
2021/03/06 04:12:48;;;;;;;17.60;13.35;;;9.10;99.90;;;;;;5034959;28;20071;-73
2021/03/06 04:15:15;;;;;;;18.67;13.32;;;9.10;99.90;;;;;;5014527;28;20108;-73
2021/03/06 04:17:41;;;;;;;17.95;12.98;;;9.10;99.90;;;;;;5014668;28;20030;-72
2021/03/06 04:20:10;;;;;;;18.15;13.13;;;9.10;99.90;;;;;;5014864;28;20084;-72
2021/03/06 04:22:36;;;;;;;16.35;12.18;;;9.10;99.90;;;;;;5014992;28;20109;-72
2021/03/06 04:25:02;;;;;;;17.30;13.38;;;9.20;99.90;;;;;;5014694;28;20561;-73
2021/03/06 04:27:28;;;;;;;17.13;12.90;;;9.10;99.90;;;;;;5014751;28;20053;-72
2021/03/06 04:29:54;;;;;;;19.80;14.43;;;9.10;99.90;;;;;;5014512;28;20061;-73
2021/03/06 04:32:20;;;;;;;17.30;13.48;;;9.00;99.90;;;;;;5013053;28;20034;-73
2021/03/06 04:34:45;;;;;;;17.30;14.25;;;9.00;99.90;;;;;;5013057;28;20529;-73
2021/03/06 04:37:11;;;;;;;18.55;13.95;;;9.00;99.90;;;;;;5014452;28;20109;-73
2021/03/06 04:39:37;;;;;;;17.27;13.57;;;9.00;99.90;;;;;;5015047;28;20042;-73
2021/03/06 04:42:03;;;;;;;15.10;13.02;;;8.90;99.90;;;;;;5014519;28;20513;-73
2021/03/06 04:44:29;;;;;;;18.77;13.43;;;8.90;99.90;;;;;;5014097;28;20492;-73
2021/03/06 04:46:55;;;;;;;20.23;13.20;;;8.90;99.90;;;;;;5014369;28;20109;-73
2021/03/06 04:49:21;;;;;;;20.35;15.50;;;8.90;99.90;;;;;;5017603;28;20069;-72
2021/03/06 04:51:47;;;;;;;18.92;13.15;;;8.90;99.90;;;;;;5034030;28;20061;-72
2021/03/06 04:54:13;;;;;;;20.35;13.55;;;9.00;99.90;;;;;;5033806;28;20030;-72
2021/03/06 04:56:38;;;;;;;19.50;14.07;;;9.00;99.90;;;;;;5034010;28;20038;-73
2021/03/06 04:59:04;;;;;;;17.95;13.50;;;8.90;99.90;;;;;;5032098;28;20065;-73
2021/03/06 05:01:30;;;;;;;18.65;12.88;;;9.00;99.90;;;;;;5028015;28;20029;-73
2021/03/06 05:03:56;;;;;;;18.98;14.02;;;9.00;99.90;;;;;;5025788;28;20029;-72
2021/03/06 05:06:21;;;;;;;16.77;13.75;;;9.00;99.90;;;;;;5014022;28;20022;-73
2021/03/06 05:08:47;;;;;;;18.90;14.50;;;9.00;99.90;;;;;;5016499;28;20059;-73
2021/03/06 05:11:13;;;;;;;23.23;14.07;;;9.00;99.90;;;;;;5013471;28;20017;-73
2021/03/06 05:13:38;;;;;;;20.13;14.95;;;9.00;99.90;;;;;;5013653;28;20081;-72
2021/03/06 05:16:05;;;;;;;22.00;14.10;;;9.00;99.90;;;;;;5015117;28;20494;-72
2021/03/06 05:18:32;;;;;;;17.77;14.10;;;8.90;99.90;;;;;;5012533;28;20482;-73
2021/03/06 05:20:58;;;;;;;17.55;15.57;;;8.90;99.90;;;;;;5013711;28;20022;-72
2021/03/06 05:23:28;;;;;;;19.15;14.77;;;8.90;99.90;;;;;;5024986;28;20033;-72
2021/03/06 05:25:54;;;;;;;18.15;14.40;;;8.90;99.90;;;;;;5033633;28;20398;-72
2021/03/06 05:28:20;;;;;;;21.52;15.90;;;9.00;99.90;;;;;;5033127;28;20050;-72
2021/03/06 05:30:46;;;;;;;17.52;13.50;;;9.00;99.90;;;;;;5032946;28;20031;-73
2021/03/06 05:33:14;;;;;;;20.90;14.38;;;9.00;99.90;;;;;;5028912;28;20030;-73
2021/03/06 05:35:39;;;;;;;21.42;14.63;;;8.90;99.90;;;;;;5001796;28;20546;-72
2021/03/06 05:38:05;;;;;;;19.33;14.45;;;8.90;99.90;;;;;;5023711;28;20096;-73
2021/03/06 05:40:36;;;;;;;19.42;14.68;;;8.90;99.90;;;;;;5029891;28;20102;-73
2021/03/06 05:43:02;;;;;;;18.70;14.38;;;8.90;99.90;;;;;;5012909;28;20486;-73
2021/03/06 05:45:28;;;;;;;19.80;14.82;;;8.90;99.90;;;;;;5012668;28;20028;-73
2021/03/06 05:47:56;;;;;;;19.48;14.68;;;8.90;99.90;;;;;;5013458;28;20482;-73
2021/03/06 05:50:22;;;;;;;21.80;15.73;;;8.90;99.90;;;;;;5013222;28;20028;-73
2021/03/06 05:52:50;;;;;;;20.15;15.20;;;8.90;99.90;;;;;;5013221;28;20049;-73
2021/03/06 05:55:18;;;;;;;22.00;14.65;;;8.90;99.90;;;;;;5012945;28;20029;-73
2021/03/06 05:57:44;;;;;;;17.75;13.38;;;8.80;99.90;;;;;;5011689;28;20077;-73
2021/03/06 06:00:11;;;;;;;18.55;14.07;;;8.80;99.90;;;;;;5012381;28;20034;-72
2021/03/06 06:02:38;;;;;;;17.33;13.93;;;8.80;99.90;;;;;;5029570;28;20539;-73
2021/03/06 06:05:05;;;;;;;17.75;13.07;;;8.80;99.90;;;;;;5014180;28;20108;-73
2021/03/06 06:07:34;;;;;;;21.02;15.27;;;8.80;99.90;;;;;;5012527;28;20025;-73
2021/03/06 06:09:59;;;;;;;18.15;12.98;;;8.90;99.90;;;;;;5017024;28;20010;-73
2021/03/06 06:12:26;;;;;;;16.05;13.35;;;8.90;99.90;;;;;;5032182;28;20033;-72
2021/03/06 06:14:51;;;;;;;17.02;14.13;;;8.80;99.90;;;;;;5024992;28;20018;-73
2021/03/06 06:17:17;;;;;;;17.88;13.98;;;8.80;99.90;;;;;;5012939;28;20030;-73
2021/03/06 06:19:43;;;;;;;17.85;14.73;;;8.80;99.90;;;;;;5012837;28;20029;-73
2021/03/06 06:22:16;;;;;;;18.80;14.90;;;8.80;99.90;;;;;;5012860;28;20033;-73
2021/03/06 06:24:46;;;;;;;16.35;13.93;;;8.80;99.90;;;;;;5012731;28;20041;-72
2021/03/06 06:27:20;;;;;;;17.20;13.23;;;8.80;99.90;;;;;;5010809;28;20049;-73
2021/03/06 06:29:46;;;;;;;16.10;13.00;;;8.80;99.90;;;;;;5011033;28;20022;-73
2021/03/06 06:32:20;;;;;;;18.67;12.57;;;8.80;99.90;;;;;;5012226;28;20512;-73
2021/03/06 06:35:06;;;;;;;16.65;14.43;;;8.90;99.90;;;;;;4996699;28;20097;-72
2021/03/06 06:37:33;;;;;;;14.77;13.23;;;8.90;99.90;;;;;;5011818;28;20048;-73
2021/03/06 06:40:00;;;;;;;19.67;14.18;;;8.90;99.90;;;;;;5011984;28;20028;-72
2021/03/06 06:42:34;;;;;;;16.02;12.93;;;8.90;99.90;;;;;;5012766;28;20034;-72
2021/03/06 06:45:00;;;;;;;17.15;14.50;;;8.90;99.90;;;;;;5011854;28;20026;-72
2021/03/06 06:47:34;;;;;;;15.55;13.40;;;9.00;99.90;;;;;;5010861;28;20030;-72
2021/03/06 06:50:00;;;;;;;16.67;13.88;;;9.00;99.90;;;;;;5010962;28;20058;-73
2021/03/06 06:52:34;;;;;;;17.17;14.45;;;9.00;99.90;;;;;;5011853;28;20049;-72
2021/03/06 06:55:01;;;;;;;20.00;15.60;;;8.90;99.90;;;;;;5011645;28;20482;-71
2021/03/06 06:57:28;;;;;;;19.50;14.55;;;8.90;99.90;;;;;;5014055;28;20049;-71
2021/03/06 07:00:05;;;;;;;18.25;14.57;;;8.90;99.90;;;;;;5016246;28;20026;-71
2021/03/06 07:02:32;;;;;;;17.77;13.40;;;8.90;99.90;;;;;;5014191;28;20061;-71
2021/03/06 07:05:01;;;;;;;20.05;14.25;;;8.90;99.90;;;;;;5016110;28;20024;-72
2021/03/06 07:07:40;;;;;;;16.90;14.55;;;8.80;99.90;;;;;;5017568;28;20033;-71
2021/03/06 07:10:06;;;;;;;17.50;13.85;;;8.90;99.90;;;;;;5015318;28;20025;-72
2021/03/06 07:12:36;;;;;;;17.33;14.38;;;8.90;99.90;;;;;;5015433;28;20105;-71
2021/03/06 07:15:02;;;;;;;;;;;8.90;99.90;;;;;;5016053;28;20524;-73
2021/03/06 07:17:49;;;;;;;17.02;13.20;;;9.00;99.90;;;;;;5015360;28;19905;-72
2021/03/06 07:20:21;;;;;;;22.10;14.57;;;9.00;99.90;;;;;;5010778;28;20022;-72
2021/03/06 07:22:51;;;;;;;17.88;14.02;;;9.00;99.90;;;;;;5015313;28;20028;-72
2021/03/06 07:25:16;;;;;;;;;;;8.90;99.90;;;;;;5015614;28;20018;-73
2021/03/06 07:27:43;;;;;;;15.27;12.73;;;8.90;99.90;;;;;;5015360;28;19912;-72
2021/03/06 07:30:11;;;;;;;15.35;13.57;;;8.90;99.90;;;;;;5015560;28;20029;-73
2021/03/06 07:32:39;;;;;;;17.65;13.93;;;8.90;99.90;;;;;;5015068;28;20029;-72
2021/03/06 07:35:07;;;;;;;17.48;13.85;;;8.90;99.90;;;;;;5014861;28;20088;-74
2021/03/06 07:37:34;;;;;;;16.73;13.55;;;8.90;99.90;;;;;;5014413;28;20505;-72
2021/03/06 07:40:02;;;;;;;14.38;12.77;;;8.90;99.90;;;;;;5007395;28;20068;-73
2021/03/06 07:42:42;;;;;;;15.23;12.43;;;8.80;99.90;;;;;;5015254;28;20046;-72
2021/03/06 07:45:14;;;;;;;17.13;13.85;;;8.80;99.90;;;;;;5008263;28;20028;-71
2021/03/06 07:47:42;;;;;;;15.32;12.68;;;8.70;99.90;;;;;;5014953;28;20080;-71
2021/03/06 07:50:18;;;;;;;17.67;13.50;;;8.60;99.90;;;;;;5024115;28;20021;-71
2021/03/06 07:52:44;;;;;;;18.23;13.55;;;8.50;99.90;;;;;;5014690;28;20506;-71
2021/03/06 07:55:11;;;;;;;17.70;13.82;;;8.50;99.90;;;;;;5015611;28;20434;-71
2021/03/06 07:58:03;;;;;;;17.02;13.15;;;8.60;99.90;;;;;;5015415;28;20026;-71
2021/03/06 08:00:54;;;;;;;19.67;14.13;;;8.60;99.90;;;;;;5019483;28;20486;-71
2021/03/06 08:06:04;;;;;;;17.15;13.70;;;8.70;99.90;;;;;;5030894;28;20476;-71
2021/03/06 08:08:32;;;;;;;19.37;14.60;;;8.70;99.90;;;;;;5026350;28;20087;-71
2021/03/06 08:11:10;;;;;;;18.50;14.70;;;8.60;99.90;;;;;;5030247;28;20034;-71
2021/03/06 08:13:37;;;;;;;19.10;14.43;;;8.70;99.90;;;;;;5032352;28;20033;-71
2021/03/06 08:18:49;;;;;;;20.02;14.23;;;8.60;99.90;;;;;;5014475;28;20129;-71
2021/03/06 08:21:36;;;;;;;17.63;13.88;;;8.70;99.90;;;;;;5014530;28;20037;-71
2021/03/06 08:24:14;;;;;;;19.13;14.82;;;8.60;99.90;;;;;;5011079;28;20090;-71
2021/03/06 08:26:43;;;;;;;21.20;14.05;;;8.50;99.90;;;;;;5014771;28;20029;-71
2021/03/06 08:29:22;;;;;;;18.35;14.20;;;8.40;99.90;;;;;;5027461;28;20056;-71
2021/03/06 08:31:56;;;;;;;19.75;14.82;;;8.20;99.90;;;;;;5034528;28;20026;-71
2021/03/06 08:34:45;;;;;;;22.92;16.02;;;8.30;99.90;;;;;;5025689;28;20113;-71
2021/03/06 08:37:19;;;;;;;20.08;13.88;;;8.30;99.90;;;;;;5013809;28;20069;-71
2021/03/06 08:40:00;;;;;;;21.90;15.20;;;8.40;99.90;;;;;;5014282;28;20406;-72
2021/03/06 08:42:33;;;;;;;20.92;16.08;;;8.40;99.90;;;;;;5031265;28;20415;-72
2021/03/06 08:45:02;;;;;;;18.48;15.80;;;8.50;99.90;;;;;;5014025;28;20483;-72
2021/03/06 08:47:30;;;;;;;26.95;15.15;;;8.60;99.90;;;;;;5014908;28;20030;-71
2021/03/06 08:49:58;;;;;;;22.30;14.85;;;8.60;99.90;;;;;;5014352;28;20030;-72
2021/03/06 08:52:26;;;;;;;24.20;16.30;;;8.50;99.90;;;;;;5013356;28;20049;-71
2021/03/06 08:54:52;;;;;;;22.67;16.70;;;8.50;99.90;;;;;;5013542;28;20509;-71
2021/03/06 08:57:31;;;;;;;22.45;16.10;;;8.60;99.90;;;;;;5017036;28;20025;-71
2021/03/06 08:59:58;;;;;;;23.42;15.45;;;8.60;99.90;;;;;;5017459;28;20100;-71
2021/03/06 09:02:31;;;;;;;24.05;15.98;;;8.60;99.90;;;;;;5015104;28;20057;-72
2021/03/06 09:05:14;;;;;;;21.35;15.45;;;8.50;99.90;;;;;;5013339;28;20038;-71
2021/03/06 09:07:48;;;;;;;25.45;17.30;;;8.40;99.90;;;;;;5014091;28;20030;-71
2021/03/06 09:10:15;;;;;;;24.40;15.02;;;8.40;99.90;;;;;;5014110;28;20026;-71
2021/03/06 09:12:43;;;;;;;20.83;13.73;;;8.40;99.90;;;;;;5013798;28;20478;-71
2021/03/06 09:15:23;;;;;;;23.00;16.02;;;8.50;99.90;;;;;;5011725;28;20026;-71
2021/03/06 09:17:49;;;;;;;26.90;16.10;;;8.50;99.90;;;;;;5012787;28;20061;-71
2021/03/06 09:20:15;;;;;;;25.60;16.15;;;8.60;99.90;;;;;;5010642;28;20053;-73
2021/03/06 09:22:46;;;;;;;25.42;16.80;;;8.50;99.90;;;;;;5011269;28;20029;-72
2021/03/06 09:25:12;;;;;;;22.55;16.60;;;8.70;99.90;;;;;;5012551;28;20018;-72
2021/03/06 09:27:44;;;;;;;21.83;15.63;;;8.70;99.90;;;;;;5022005;28;20111;-72
2021/03/06 09:30:26;;;;;;;21.60;16.05;;;8.70;99.90;;;;;;5016606;28;20387;-72
2021/03/06 09:32:52;;;;;;;28.58;16.38;;;8.50;99.90;;;;;;5017419;28;20482;-72
2021/03/06 09:35:19;;;;;;;28.02;17.63;;;8.50;99.90;;;;;;5019071;28;20022;-72
2021/03/06 09:37:45;;;;;;;25.77;16.60;;;8.50;99.90;;;;;;5018983;28;20422;-72
2021/03/06 09:40:25;;;;;;;25.48;16.98;;;8.40;99.90;;;;;;5028932;28;20025;-72
2021/03/06 09:42:51;;;;;;;24.98;16.42;;;8.40;99.90;;;;;;5020333;28;20036;-72
2021/03/06 09:45:17;;;;;;;25.17;15.93;;;8.50;99.90;;;;;;5012290;28;20463;-72
2021/03/06 09:47:44;;;;;;;23.35;15.70;;;8.40;99.90;;;;;;5019790;28;20014;-72
2021/03/06 09:50:14;;;;;;;24.13;16.85;;;8.60;99.90;;;;;;5015707;28;20448;-72
2021/03/06 09:52:39;;;;;;;;;;;8.70;99.90;;;;;;5013666;28;20032;-72
2021/03/06 09:55:25;;;;;;;29.67;16.20;;;8.60;99.90;;;;;;5011909;28;20386;-72
2021/03/06 09:57:51;;;;;;;24.83;19.05;;;8.60;99.90;;;;;;5012075;28;20063;-72
2021/03/06 10:00:25;;;;;;;26.70;17.20;;;8.80;99.90;;;;;;5011957;28;20034;-72
2021/03/06 10:02:52;;;;;;;25.65;15.88;;;8.70;99.90;;;;;;5008637;28;20552;-72
2021/03/06 10:05:22;;;;;;;26.60;15.85;;;8.80;99.90;;;;;;5011113;28;20084;-72
2021/03/06 10:07:51;;;;;;;24.23;15.98;;;8.80;99.90;;;;;;5012226;28;20072;-72
2021/03/06 10:10:17;;;;;;;26.20;17.58;;;8.80;99.90;;;;;;5013868;28;20109;-72
2021/03/06 10:12:45;;;;;;;27.95;16.02;;;8.90;99.90;;;;;;5015092;28;20030;-72
2021/03/06 10:15:13;;;;;;;23.05;17.38;;;8.90;99.60;;;;;;5012167;28;20029;-72
2021/03/06 10:17:39;;;;;;;23.73;15.80;;;8.90;99.80;;;;;;5011109;28;20022;-72
2021/03/06 10:20:05;;;;;;;28.73;16.95;;;9.10;99.90;;;;;;5026500;28;20481;-72
2021/03/06 10:22:43;;;;;;;22.95;17.25;;;9.20;97.60;;;;;;5011445;28;20029;-72
2021/03/06 10:25:10;;;;;;;22.13;16.58;;;9.50;98.00;;;;;;5011339;28;20030;-72
2021/03/06 10:27:46;;;;;;;23.00;17.48;;;9.50;97.50;;;;;;5015183;28;20014;-72
2021/03/06 10:30:22;;;;;;;27.77;17.90;;;9.60;97.60;;;;;;5017807;28;20088;-72
2021/03/06 10:33:02;;;;;;;28.40;19.67;;;9.70;97.40;;;;;;5019872;28;20485;-72
2021/03/06 10:35:38;;;;;;;23.88;15.35;;;9.80;96.20;;;;;;5008493;28;20038;-72
2021/03/06 10:38:06;;;;;;;26.88;16.25;;;9.80;96.60;;;;;;5020262;28;20045;-72
2021/03/06 10:40:52;;;;;;;27.70;17.70;;;9.70;96.50;;;;;;5016226;28;20033;-72
2021/03/06 10:43:33;;;;;;;26.63;16.15;;;9.50;97.40;;;;;;5012018;28;20410;-72
2021/03/06 10:46:18;;;;;;;23.02;15.20;;;9.50;97.20;;;;;;5014525;28;20116;-72
2021/03/06 10:48:51;;;;;;;25.35;15.50;;;9.50;96.30;;;;;;5011721;28;20028;-72
2021/03/06 10:51:16;;;;;;;23.17;15.40;;;9.50;96.90;;;;;;5011894;28;20506;-72
2021/03/06 10:53:43;;;;;;;21.38;15.43;;;9.40;96.80;;;;;;5016649;28;20036;-72
2021/03/06 10:56:20;;;;;;;22.40;15.50;;;9.40;97.30;;;;;;5014861;28;20096;-72
2021/03/06 10:58:47;;;;;;;23.83;15.15;;;9.30;98.00;;;;;;5016271;28;20445;-72
2021/03/06 11:01:16;;;;;;;23.40;15.88;;;9.30;98.30;;;;;;5012022;28;20026;-71
2021/03/06 11:03:49;;;;;;;23.63;16.00;;;9.30;97.60;;;;;;5010109;28;20017;-72
2021/03/06 11:06:18;;;;;;;22.40;15.80;;;9.30;97.10;;;;;;5007076;28;20494;-72
2021/03/06 11:08:57;;;;;;;26.15;15.02;;;9.30;97.30;;;;;;4999152;28;20413;-72
2021/03/06 11:11:24;;;;;;;27.50;16.02;;;9.40;98.30;;;;;;5012047;28;20470;-73
2021/03/06 11:13:50;;;;;;;24.38;15.57;;;9.40;96.40;;;;;;5011640;28;20026;-73
2021/03/06 11:16:16;;;;;;;25.63;18.80;;;9.30;96.80;;;;;;5011439;28;20441;-73
2021/03/06 11:18:43;;;;;;;25.77;15.88;;;9.30;96.80;;;;;;5011733;28;20022;-73
2021/03/06 11:21:13;;;;;;;30.58;15.15;;;9.30;97.40;;;;;;5012478;28;20030;-72
2021/03/06 11:23:40;;;;;;;30.20;18.13;;;9.20;96.40;;;;;;5021765;28;20049;-73
2021/03/06 11:26:08;;;;;;;23.98;16.92;;;9.30;97.20;;;;;;5015053;28;20030;-73
2021/03/06 11:28:34;;;;;;;25.17;16.25;;;9.30;98.70;;;;;;5021979;28;20125;-73
2021/03/06 11:31:01;;;;;;;24.65;16.25;;;9.30;98.90;;;;;;5010225;28;20435;-73
2021/03/06 11:33:27;;;;;;;31.10;16.80;;;9.30;99.00;;;;;;5011142;28;20028;-73
2021/03/06 11:35:53;;;;;;;24.85;16.35;;;9.30;99.20;;;;;;5010619;28;20108;-73
2021/03/06 11:38:22;;;;;;;24.13;16.88;;;9.30;99.10;;;;;;5011125;28;20112;-73
2021/03/06 11:40:50;;;;;;;22.05;15.77;;;9.30;99.20;;;;;;5010260;28;20074;-73
2021/03/06 11:43:18;;;;;;;28.08;17.45;;;9.30;99.50;;;;;;5014977;28;20080;-73
2021/03/06 11:45:44;;;;;;;25.40;16.23;;;9.40;99.50;;;;;;5013984;28;20056;-73
2021/03/06 11:48:11;;;;;;;29.23;17.17;;;9.30;99.10;;;;;;5018839;28;21488;-73
2021/03/06 11:50:39;;;;;;;30.35;17.30;;;9.30;99.40;;;;;;5019202;28;20037;-73
2021/03/06 11:53:05;;;;;;;23.67;15.82;;;9.30;98.50;;;;;;5014087;28;20034;-73
2021/03/06 11:55:32;;;;;;;25.35;17.00;;;9.30;99.50;;;;;;5014423;28;20439;-73
2021/03/06 11:57:58;;;;;;;27.05;17.40;;;9.30;99.50;;;;;;5018556;28;20037;-73
2021/03/06 12:00:27;;;;;;;24.05;16.92;;;9.40;99.40;;;;;;5014233;28;20389;-73
2021/03/06 12:02:53;;;;;;;23.40;15.98;;;9.40;98.60;;;;;;5014928;28;20463;-73
2021/03/06 12:05:19;;;;;;;26.67;16.60;;;9.50;98.70;;;;;;5013139;28;20026;-73
2021/03/06 12:07:46;;;;;;;24.60;16.90;;;9.50;98.90;;;;;;5014340;28;20049;-73
2021/03/06 12:10:17;;;;;;;22.98;15.93;;;9.50;98.60;;;;;;5013575;28;20026;-73
2021/03/06 12:12:45;;;;;;;26.65;16.55;;;9.50;98.40;;;;;;5016369;28;20018;-73
2021/03/06 12:15:13;;;;;;;22.45;15.98;;;9.60;98.60;;;;;;5013312;28;20026;-73
2021/03/06 12:17:40;;;;;;;28.92;16.65;;;9.60;98.30;;;;;;5013283;28;20481;-73
2021/03/06 12:20:07;;;;;;;30.02;17.38;;;9.60;98.70;;;;;;5010805;28;20014;-73
2021/03/06 12:22:33;;;;;;;28.83;18.02;;;9.60;98.10;;;;;;5013763;28;20037;-73
2021/03/06 12:24:58;;;;;;;28.05;17.20;;;9.60;98.50;;;;;;5013652;28;20034;-73
2021/03/06 12:27:24;;;;;;;28.85;17.05;;;9.60;98.30;;;;;;5012790;28;20026;-73
2021/03/06 12:29:50;;;;;;;28.30;16.42;;;9.50;97.70;;;;;;5013792;28;20022;-73
2021/03/06 12:32:16;;;;;;;33.20;16.45;;;9.50;97.00;;;;;;5017725;28;20034;-73
2021/03/06 12:34:42;;;;;;;23.75;15.75;;;9.40;97.50;;;;;;5016067;28;20041;-73
2021/03/06 12:37:07;;;;;;;26.83;16.52;;;9.50;96.90;;;;;;5014275;28;20536;-73
2021/03/06 12:39:33;;;;;;;29.38;17.90;;;9.50;96.00;;;;;;5016907;28;20065;-73
2021/03/06 12:42:00;;;;;;;24.95;15.45;;;9.40;97.10;;;;;;5014249;28;20107;-73
2021/03/06 12:44:26;;;;;;;24.02;15.95;;;9.40;97.70;;;;;;5012962;28;20509;-73
2021/03/06 12:46:52;;;;;;;27.85;16.20;;;9.40;98.50;;;;;;5015769;28;20040;-73
2021/03/06 12:49:18;;;;;;;28.35;16.92;;;9.40;98.00;;;;;;5016376;28;20501;-73
2021/03/06 12:51:44;;;;;;;22.77;16.50;;;9.50;98.80;;;;;;5013474;28;20022;-73
2021/03/06 12:54:10;;;;;;;26.05;16.60;;;9.50;98.30;;;;;;5013194;28;20092;-73